Terminal Aerodrome Forecast
Issued by NWS Caribou, ME

Home | Current Version | Previous Version | Text Only | Print | Product List | Glossary On
Versions: 1 2 3 4 5 6 7 8 9 10 11 12 13 14 15 16
232
FTUS41 KCAR 192320
TAFBGR
TAF
KBGR 192320Z 2000/2024 30004KT P6SM VCSH OVC050
     FM200500 33006KT P6SM VCSH OVC025
     FM201800 34010G20KT P6SM OVC035=

USA.gov is the U.S. government's official web portal to all federal, state and local government web resources and services.